Time;durP1;ratioP1;P1;durP2;ratioP2;P2;SDS_P1;SDS_P2;PMS_P1;PMS_P2;Temp;Humidity;BMP_temperature;BMP_pressure;BME280_temperature;BME280_humidity;BME280_pressure;Samples;Min_cycle;Max_cycle;Signal;HPM_P1;HPM_P2
2023/03/02 06:00:12;;;;;;;;;65.00;51.00;;;;;3.05;49.64;101775.00;6024966;23;45807;-53
2023/03/02 06:02:39;;;;;;;;;62.25;45.75;;;;;3.04;49.50;101778.50;4967860;28;45443;-52
2023/03/02 06:05:18;;;;;;;;;73.00;51.00;;;;;3.03;50.12;101779.38;4962913;28;45340;-53
2023/03/02 06:07:44;;;;;;;;;62.50;49.25;;;;;3.02;49.74;101784.66;4969496;28;47195;-53
2023/03/02 06:10:10;;;;;;;;;58.00;41.75;;;;;3.02;49.90;101777.63;4957574;28;71831;-50
2023/03/02 06:12:36;;;;;;;;;63.25;48.25;;;;;3.02;49.75;101785.50;4965059;28;45382;-52
2023/03/02 06:15:03;;;;;;;;;62.25;49.00;;;;;3.03;49.72;101787.28;4962403;28;45346;-53
2023/03/02 06:17:28;;;;;;;;;61.25;49.50;;;;;3.02;49.68;101785.50;4962032;28;46598;-52
2023/03/02 06:19:53;;;;;;;;;65.50;49.25;;;;;3.01;49.74;101794.28;4953744;28;71298;-53
2023/03/02 06:22:19;;;;;;;;;61.25;47.00;;;;;3.00;50.03;101796.91;4965344;28;45529;-51
2023/03/02 06:24:44;;;;;;;;;64.00;49.00;;;;;2.99;49.94;101793.44;4950773;28;70400;-52
2023/03/02 06:27:11;;;;;;;;;62.25;48.25;;;;;3.01;49.72;101798.66;4947676;28;68048;-52
2023/03/02 06:29:37;;;;;;;;;62.25;50.50;;;;;3.00;50.03;101804.81;4956744;28;45388;-53
2023/03/02 06:32:02;;;;;;;;;62.25;50.00;;;;;3.01;49.74;101801.31;4947232;28;67710;-53
2023/03/02 06:34:28;;;;;;;;;62.25;49.00;;;;;3.01;50.23;101803.94;4954140;28;45485;-50
2023/03/02 06:36:54;;;;;;;;;65.50;48.50;;;;;3.02;50.19;101800.44;4954698;28;56912;-51
2023/03/02 06:39:19;;;;;;;;;62.50;52.00;;;;;3.02;49.91;101806.56;4957420;28;45399;-52
2023/03/02 06:41:45;;;;;;;;;63.75;48.50;;;;;3.03;49.76;101803.03;4956743;28;45396;-52
2023/03/02 06:44:11;;;;;;;;;63.00;46.25;;;;;3.05;50.11;101817.06;4957271;28;45520;-52
2023/03/02 06:46:37;;;;;;;;;63.50;49.50;;;;;3.06;49.96;101810.91;4963541;28;45688;-49
2023/03/02 06:49:03;;;;;;;;;60.50;47.50;;;;;3.09;50.06;101808.31;4950223;28;45410;-50
2023/03/02 06:51:28;;;;;;;;;62.00;51.50;;;;;3.08;50.33;101816.19;4958279;28;45382;-51
2023/03/02 06:53:54;;;;;;;;;64.75;52.25;;;;;3.09;50.00;101813.56;4974938;28;60484;-52
2023/03/02 06:56:19;;;;;;;;;61.25;49.00;;;;;3.10;50.29;101815.31;4954301;28;45345;-51
2023/03/02 06:58:44;;;;;;;;;67.50;53.75;;;;;3.13;49.92;101817.91;4954179;28;63061;-52
2023/03/02 07:01:10;;;;;;;;;66.75;48.75;;;;;3.16;50.18;101817.03;4957994;28;59260;-52
2023/03/02 07:03:35;;;;;;;;;62.50;50.00;;;;;3.19;50.12;101824.03;4959119;28;49097;-49
2023/03/02 07:06:01;;;;;;;;;71.50;54.00;;;;;3.21;50.05;101820.53;4958850;28;46232;-52
2023/03/02 07:08:27;;;;;;;;;71.00;53.75;;;;;3.25;50.14;101814.38;4952512;28;45204;-52
2023/03/02 07:10:52;;;;;;;;;63.00;48.75;;;;;3.31;50.38;101823.97;4965000;28;45363;-52
2023/03/02 07:13:17;;;;;;;;;70.75;51.25;;;;;3.35;49.81;101823.13;4978084;28;45217;-51
2023/03/02 07:15:43;;;;;;;;;66.50;50.75;;;;;3.38;50.15;101825.72;4956816;28;53138;-52
2023/03/02 07:18:08;;;;;;;;;62.25;50.00;;;;;3.42;50.08;101821.34;4952480;28;65589;-51
2023/03/02 07:20:34;;;;;;;;;67.25;51.50;;;;;3.46;49.97;101818.66;4963251;28;62646;-52
2023/03/02 07:22:59;;;;;;;;;64.50;51.00;;;;;3.50;49.77;101819.53;4964085;28;45589;-50
2023/03/02 07:25:24;;;;;;;;;63.50;46.00;;;;;3.55;49.67;101812.50;4956968;28;72643;-48
2023/03/02 07:27:50;;;;;;;;;65.50;49.50;;;;;3.59;49.74;101814.22;4971441;28;45611;-52
2023/03/02 07:30:19;;;;;;;;;68.00;50.75;;;;;3.67;49.83;101814.19;4961359;28;49904;-49
2023/03/02 07:32:45;;;;;;;;;67.50;53.25;;;;;3.73;49.93;101813.28;4962140;28;45440;-51
2023/03/02 07:35:10;;;;;;;;;68.25;51.25;;;;;3.78;49.54;101809.75;4956989;28;45608;-50
2023/03/02 07:37:36;;;;;;;;;63.75;49.25;;;;;3.82;49.57;101802.72;4963604;28;45305;-50
2023/03/02 07:40:02;;;;;;;;;64.75;51.00;;;;;3.85;49.40;101815.88;4964796;28;45204;-53
2023/03/02 07:42:27;;;;;;;;;66.50;53.50;;;;;3.87;49.16;101813.22;4961306;28;45637;-50
2023/03/02 07:44:53;;;;;;;;;65.50;50.50;;;;;3.91;49.51;101807.03;4958818;28;60597;-52
2023/03/02 07:47:18;;;;;;;;;61.25;49.25;;;;;3.96;49.42;101807.88;4968149;28;45362;-52
2023/03/02 07:49:43;;;;;;;;;63.75;49.75;;;;;4.01;49.48;101815.78;4967599;28;45504;-51
2023/03/02 07:52:09;;;;;;;;;59.25;46.75;;;;;4.04;48.92;101821.00;4977240;28;67555;-51
2023/03/02 07:54:34;;;;;;;;;66.00;47.25;;;;;4.07;49.19;101821.88;4963419;28;73420;-51
2023/03/02 07:56:59;;;;;;;;;62.50;45.25;;;;;4.10;49.33;101815.72;4951584;28;45669;-48
2023/03/02 07:59:27;;;;;;;;;64.00;49.25;;;;;4.16;48.97;101830.56;4959362;28;45335;-50
2023/03/02 08:01:52;;;;;;;;;59.75;49.25;;;;;4.23;49.11;101825.25;4971666;28;45287;-52
2023/03/02 08:04:17;;;;;;;;;69.25;50.75;;;;;4.28;49.13;101817.34;4970814;28;46137;-50
2023/03/02 08:06:43;;;;;;;;;66.50;50.50;;;;;4.34;49.11;101813.78;4967009;28;70031;-52
2023/03/02 08:09:08;;;;;;;;;56.25;40.25;;;;;4.41;48.85;101813.72;4971954;28;66174;-48
2023/03/02 08:11:33;;;;;;;;;62.25;50.75;;;;;4.47;48.93;101815.41;4964321;28;45396;-52
2023/03/02 08:14:00;;;;;;;;;65.75;53.25;;;;;4.55;48.76;101824.16;4955045;28;61126;-50
2023/03/02 08:16:25;;;;;;;;;58.75;48.75;;;;;4.61;48.92;101820.56;4955533;28;45661;-48
2023/03/02 08:18:51;;;;;;;;;68.25;52.75;;;;;4.64;48.28;101825.81;4970543;28;45855;-48
2023/03/02 08:21:19;;;;;;;;;71.75;54.00;;;;;4.68;48.60;101835.47;4956659;28;46365;-50
2023/03/02 08:23:44;;;;;;;;;64.25;53.25;;;;;4.75;48.16;101837.13;4955281;28;46359;-52
2023/03/02 08:26:11;;;;;;;;;59.00;48.00;;;;;4.83;48.33;101831.78;4957462;28;45718;-50
2023/03/02 08:28:36;;;;;;;;;65.25;50.00;;;;;4.90;48.02;101827.31;4964534;28;45336;-51
2023/03/02 08:31:02;;;;;;;;;67.75;55.00;;;;;4.96;48.10;101820.22;4959638;28;64649;-49
2023/03/02 08:33:29;;;;;;;;;63.00;50.75;;;;;5.06;47.79;101821.00;4958152;28;46136;-49
2023/03/02 08:36:00;;;;;;;;;64.75;49.75;;;;;5.17;48.08;101822.66;4961042;28;45268;-46
2023/03/02 08:38:26;;;;;;;;;66.00;52.75;;;;;5.23;47.31;101822.59;4961420;28;45376;-50
2023/03/02 08:40:51;;;;;;;;;91.50;60.50;;;;;5.27;47.16;101824.31;4964906;28;45421;-51
2023/03/02 08:43:18;;;;;;;;;66.00;51.00;;;;;5.32;47.32;101816.31;4970150;28;46123;-53
2023/03/02 08:45:44;;;;;;;;;63.50;48.25;;;;;5.38;47.05;101811.84;4959609;28;45210;-47
2023/03/02 08:48:09;;;;;;;;;65.50;52.75;;;;;5.46;46.94;101809.09;4966447;28;45164;-49
2023/03/02 08:50:34;;;;;;;;;67.00;53.50;;;;;5.54;46.95;101812.53;4965846;28;66141;-51
2023/03/02 08:53:00;;;;;;;;;71.25;54.50;;;;;5.57;46.37;101809.00;4962565;28;63574;-50
2023/03/02 08:55:25;;;;;;;;;75.25;56.50;;;;;5.59;46.75;101801.91;4960069;28;53735;-52
2023/03/02 08:57:50;;;;;;;;;68.75;55.00;;;;;5.64;46.36;101797.44;4960180;28;45477;-47
2023/03/02 09:00:17;;;;;;;;;73.25;56.00;;;;;5.65;46.60;101804.47;4959646;28;64964;-49
2023/03/02 09:02:42;;;;;;;;;82.00;61.25;;;;;5.66;46.45;101798.31;4962296;28;46182;-49
2023/03/02 09:05:08;;;;;;;;;73.00;58.00;;;;;5.70;46.26;101797.38;4966802;28;71753;-52
2023/03/02 09:07:33;;;;;;;;;72.75;54.50;;;;;5.78;46.17;101806.03;4960461;28;45447;-51
2023/03/02 09:09:59;;;;;;;;;61.75;46.25;;;;;5.91;46.36;101797.97;4966213;28;46943;-50
2023/03/02 09:12:24;;;;;;;;;69.25;52.50;;;;;6.03;46.23;101796.94;4958362;28;55474;-50
2023/03/02 09:14:49;;;;;;;;;73.25;51.75;;;;;6.17;46.03;101791.44;4957067;28;73300;-51
2023/03/02 09:17:16;;;;;;;;;66.00;53.00;;;;;6.28;45.14;101779.81;4959365;28;64374;-48
2023/03/02 09:19:41;;;;;;;;;70.50;51.75;;;;;6.36;45.29;101779.69;4971636;28;45475;-47
2023/03/02 09:22:07;;;;;;;;;72.50;53.25;;;;;6.46;45.08;101777.75;4960196;28;47174;-50
2023/03/02 09:24:34;;;;;;;;;113.75;77.50;;;;;6.57;45.50;101783.72;4952053;28;45410;-48
2023/03/02 09:26:59;;;;;;;;;64.00;48.75;;;;;6.70;44.78;101768.50;4957036;28;45270;-52
2023/03/02 09:29:24;;;;;;;;;64.50;49.75;;;;;6.88;44.78;101779.63;4970420;28;67833;-47
2023/03/02 09:31:50;;;;;;;;;62.50;51.50;;;;;6.99;44.31;101782.06;4960558;28;45433;-50
2023/03/02 09:34:15;;;;;;;;;62.50;50.00;;;;;7.03;43.76;101781.13;4977575;28;71630;-50
2023/03/02 09:36:40;;;;;;;;;74.00;54.75;;;;;7.07;43.76;101783.66;4975171;28;60299;-50
2023/03/02 09:39:11;;;;;;;;;61.25;50.25;;;;;7.68;44.30;101782.41;4958852;28;63779;-51
2023/03/02 09:41:55;;;;;;;;;60.00;47.50;;;;;9.28;43.85;101780.13;4972189;28;47260;-51
2023/03/02 09:44:49;;;;;;;;;59.00;48.50;;;;;11.75;41.12;101786.91;4968169;28;45425;-49
2023/03/02 09:47:28;;;;;;;;;70.50;51.75;;;;;13.54;39.08;101771.25;4967474;28;45404;-49
2023/03/02 09:50:10;;;;;;;;;67.75;51.25;;;;;15.29;36.37;101764.28;4960784;28;45306;-51
2023/03/02 09:52:39;;;;;;;;;71.00;50.50;;;;;16.46;35.59;101759.47;4969004;28;46969;-48
2023/03/02 09:55:26;;;;;;;;;60.50;47.75;;;;;17.60;33.91;101763.22;4971097;28;45302;-51
2023/03/02 09:57:53;;;;;;;;;55.25;45.00;;;;;18.58;32.58;101757.66;4940532;28;45483;-51
2023/03/02 10:00:36;;;;;;;;;60.25;47.25;;;;;19.18;30.35;101758.88;4966033;28;45453;-52
2023/03/02 10:03:08;;;;;;;;;60.25;47.25;;;;;19.51;31.15;101751.16;4960992;28;45995;-51
2023/03/02 10:05:38;;;;;;;;;55.00;45.50;;;;;20.14;30.75;101760.00;4964542;28;45306;-51
2023/03/02 10:08:03;;;;;;;;;64.00;47.50;;;;;21.15;29.75;101768.50;4959545;28;45553;-52
2023/03/02 10:10:43;;;;;;;;;58.00;47.00;;;;;21.65;28.25;101762.69;4970146;28;45389;-53
2023/03/02 10:13:11;;;;;;;;;56.25;46.00;;;;;22.30;28.80;101762.75;4964354;28;45456;-51
2023/03/02 10:15:46;;;;;;;;;54.25;45.00;;;;;23.23;27.65;101765.63;4961896;28;45402;-52
2023/03/02 10:18:41;;;;;;;;;54.75;43.75;;;;;24.04;25.63;101764.72;4959090;28;45364;-52
2023/03/02 10:21:22;;;;;;;;;55.25;44.00;;;;;24.41;25.54;101761.28;4969080;28;45326;-48
2023/03/02 10:23:56;;;;;;;;;55.00;44.25;;;;;24.82;25.16;101761.94;4954884;28;47063;-50
2023/03/02 10:26:41;;;;;;;;;53.25;44.50;;;;;25.12;21.94;101748.25;4951773;28;45531;-53
2023/03/02 10:29:09;;;;;;;;;57.50;45.50;;;;;25.08;23.94;101755.84;4966905;28;45464;-52
2023/03/02 10:31:39;;;;;;;;;59.25;47.25;;;;;25.43;24.12;101747.00;4964894;28;45256;-50
2023/03/02 10:34:10;;;;;;;;;57.25;46.75;;;;;25.72;21.43;101745.09;4955965;28;46148;-47
2023/03/02 10:36:43;;;;;;;;;58.75;44.50;;;;;25.50;21.89;101746.38;4953976;28;45327;-53
2023/03/02 10:39:13;;;;;;;;;58.50;48.00;;;;;25.48;22.54;101745.69;4958922;28;45285;-53
2023/03/02 10:41:44;;;;;;;;;57.75;46.00;;;;;25.81;23.07;101746.88;4974359;28;45321;-53
2023/03/02 10:44:36;;;;;;;;;55.50;47.75;;;;;26.25;23.16;101733.38;4956584;28;45363;-53
2023/03/02 10:47:03;;;;;;;;;57.00;46.50;;;;;26.50;22.20;101733.56;4961984;28;45382;-50
2023/03/02 10:49:33;;;;;;;;;49.00;38.75;;;;;26.63;21.30;101733.13;4969052;28;45474;-52
2023/03/02 10:52:04;;;;;;;;;54.75;45.25;;;;;26.79;21.02;101726.09;4955775;28;45496;-48
2023/03/02 10:54:32;;;;;;;;;60.50;48.50;;;;;26.63;21.45;101727.69;4958134;28;46063;-51
2023/03/02 10:57:04;;;;;;;;;52.00;43.00;;;;;26.77;21.02;101733.63;4960678;28;45314;-50
2023/03/02 10:59:45;;;;;;;;;55.00;43.75;;;;;27.08;21.21;101725.75;4961974;28;45254;-51
2023/03/02 11:02:32;;;;;;;;;54.67;42.33;;;;;27.24;18.85;101719.50;4962186;28;45523;-52
2023/03/02 11:05:17;;;;;;;;;57.50;42.75;;;;;27.29;20.01;101725.34;4960599;28;45598;-51
2023/03/02 11:07:56;;;;;;;;;52.33;41.67;;;;;27.50;19.83;101715.88;4960109;28;45321;-52
2023/03/02 11:10:34;;;;;;;;;55.25;42.75;;;;;27.72;19.26;101717.13;4974356;28;45343;-50
2023/03/02 11:13:00;;;;;;;;;49.00;39.50;;;;;27.81;20.14;101718.84;4958446;28;45670;-53
2023/03/02 11:15:33;;;;;;;;;52.00;44.50;;;;;28.18;20.05;101722.97;4962739;28;45369;-52
2023/03/02 11:18:03;;;;;;;;;55.67;45.00;;;;;28.42;19.34;101721.28;4959061;28;45477;-52
2023/03/02 11:20:33;;;;;;;;;54.00;44.50;;;;;28.57;19.08;101720.56;4960874;28;45514;-53
2023/03/02 11:23:13;;;;;;;;;54.50;42.75;;;;;28.68;19.13;101726.56;4957624;28;45265;-53
2023/03/02 11:25:44;;;;;;;;;48.50;39.25;;;;;28.90;19.24;101717.78;4954922;28;46315;-52
2023/03/02 11:28:21;;;;;;;;;54.33;43.33;;;;;28.93;18.96;101714.69;4957036;28;45397;-52
2023/03/02 11:30:48;;;;;;;;;52.33;42.33;;;;;28.76;17.59;101717.47;4957467;28;45390;-52
2023/03/02 11:33:20;;;;;;;;;50.33;41.33;;;;;28.61;17.61;101716.47;4962192;28;45526;-53
2023/03/02 11:35:52;;;;;;;;;51.67;42.33;;;;;28.25;17.40;101714.09;4954249;28;45285;-49
2023/03/02 11:38:25;;;;;;;;;50.67;42.33;;;;;28.09;18.12;101712.22;4960919;28;45460;-53
2023/03/02 11:40:55;;;;;;;;;50.67;41.00;;;;;28.30;17.32;101714.44;4942723;28;45446;-50
2023/03/02 11:43:20;;;;;;;;;48.50;41.75;;;;;28.34;18.27;101710.31;4954239;28;45441;-52
2023/03/02 11:45:55;;;;;;;;;54.33;43.33;;;;;28.28;18.40;101705.53;4960283;28;45932;-55
2023/03/02 11:48:35;;;;;;;;;53.00;42.00;;;;;28.54;17.80;101700.72;4953975;28;45283;-54
2023/03/02 11:51:21;;;;;;;;;50.50;42.50;;;;;28.77;18.19;101696.44;4961874;28;45419;-48
2023/03/02 11:53:56;;;;;;;;;53.00;43.33;;;;;29.04;16.42;101698.72;4950391;28;45457;-51
2023/03/02 11:56:22;;;;;;;;;54.67;41.33;;;;;29.08;17.80;101699.22;4952464;28;46222;-51
2023/03/02 11:58:56;;;;;;;;;46.00;39.33;;;;;28.89;16.23;101686.81;4960002;28;45434;-51
2023/03/02 12:01:24;;;;;;;;;49.33;40.00;;;;;28.57;17.90;101688.59;4960324;28;45357;-54
2023/03/02 12:03:50;;;;;;;;;51.25;43.25;;;;;28.88;17.66;101690.59;4960197;28;45592;-54
2023/03/02 12:06:15;;;;;;;;;49.75;40.75;;;;;28.99;17.68;101683.88;4952926;28;46137;-54
2023/03/02 12:08:43;;;;;;;;;49.67;41.33;;;;;28.93;17.51;101687.31;4959299;28;45401;-51
2023/03/02 12:11:17;;;;;;;;;46.67;39.00;;;;;29.08;17.14;101681.94;4959007;28;45452;-53
2023/03/02 12:13:45;;;;;;;;;50.67;39.67;;;;;28.64;17.10;101684.13;4961728;28;45469;-52
2023/03/02 12:16:32;;;;;;;;;52.67;40.00;;;;;28.52;16.44;101691.00;4958466;28;46332;-54
2023/03/02 12:18:58;;;;;;;;;49.33;38.67;;;;;28.14;16.88;101685.22;4960315;28;45792;-53
2023/03/02 12:21:23;;;;;;;;;48.00;39.67;;;;;28.12;17.17;101682.69;4960709;28;45297;-54
2023/03/02 12:23:49;;;;;;;;;49.67;42.00;;;;;28.19;17.31;101678.22;4961258;28;45482;-54
2023/03/02 12:26:20;;;;;;;;;41.67;34.33;;;;;28.37;17.55;101688.97;4961477;28;46301;-52
2023/03/02 12:29:10;;;;;;;;;52.67;39.67;;;;;28.50;17.35;101687.56;4961514;28;45302;-52
2023/03/02 12:31:47;;;;;;;;;49.00;40.00;;;;;28.75;17.48;101674.72;4957713;28;45412;-52
2023/03/02 12:34:38;;;;;;;;;51.00;40.67;;;;;28.82;17.00;101681.19;4958817;28;45338;-51
2023/03/02 12:37:28;;;;;;;;;44.33;37.67;;;;;28.50;17.09;101682.97;4942780;28;47396;-54
2023/03/02 12:40:12;;;;;;;;;46.00;38.00;;;;;28.22;16.90;101682.47;4957879;28;45208;-54
2023/03/02 12:43:15;;;;;;;;;54.33;44.00;;;;;27.59;16.89;101675.75;4958576;28;45440;-54
2023/03/02 12:46:08;;;;;;;;;52.67;42.00;;;;;26.83;16.85;101678.38;4959735;28;46066;-49
2023/03/02 12:48:43;;;;;;;;;49.67;40.67;;;;;25.05;17.63;101683.53;4959832;28;45457;-53
2023/03/02 12:51:23;;;;;;;;;51.67;42.00;;;;;23.40;18.38;101677.28;4960296;28;45341;-50
2023/03/02 12:53:49;;;;;;;;;50.67;41.33;;;;;22.64;19.40;101673.13;4958387;28;45546;-50
2023/03/02 12:56:23;;;;;;;;;51.00;41.33;;;;;21.91;19.81;101681.16;4959943;28;45456;-52
2023/03/02 12:58:49;;;;;;;;;51.67;43.00;;;;;20.97;20.40;101673.47;4959467;28;46369;-49
2023/03/02 13:01:24;;;;;;;;;50.67;41.33;;;;;20.42;20.93;101671.44;4960695;28;45461;-50
2023/03/02 13:03:50;;;;;;;;;47.00;40.00;;;;;19.91;21.72;101661.00;4959570;28;45311;-52
2023/03/02 13:06:16;;;;;;;;;50.75;42.50;;;;;19.29;22.28;101663.69;4960853;28;45631;-49
2023/03/02 13:08:48;;;;;;;;;48.33;40.00;;;;;18.89;22.61;101669.31;4959806;28;46029;-51
2023/03/02 13:11:20;;;;;;;;;40.33;36.00;;;;;18.62;23.29;101662.16;4957478;28;45942;-49
2023/03/02 13:13:46;;;;;;;;;38.00;33.67;;;;;18.38;23.72;101669.28;4956508;28;45547;-51
2023/03/02 13:16:23;;;;;;;;;51.25;41.50;;;;;17.99;24.09;101653.06;4960921;28;45512;-51
2023/03/02 13:19:00;;;;;;;;;48.33;40.33;;;;;17.69;24.51;101656.81;4958387;28;45659;-47
2023/03/02 13:21:31;;;;;;;;;51.75;40.75;;;;;17.52;25.20;101652.56;4951618;28;45294;-49
2023/03/02 13:23:57;;;;;;;;;51.50;42.50;;;;;17.46;25.06;101653.81;4960038;28;45502;-50
2023/03/02 13:26:34;;;;;;;;;53.75;44.00;;;;;17.32;25.35;101651.19;4967338;28;45286;-51
2023/03/02 13:29:03;;;;;;;;;50.50;39.25;;;;;17.20;25.40;101660.91;4939408;28;46867;-50
2023/03/02 13:31:30;;;;;;;;;54.75;43.50;;;;;17.15;25.85;101657.66;4959837;28;45683;-52
2023/03/02 13:33:56;;;;;;;;;48.00;40.75;;;;;17.02;25.87;101652.19;4958335;28;45547;-50
2023/03/02 13:36:40;;;;;;;;;53.25;41.25;;;;;16.80;26.51;101656.19;4960149;28;45457;-50
2023/03/02 13:39:07;;;;;;;;;59.75;46.25;;;;;16.67;26.16;101650.75;4957866;28;73243;-53
2023/03/02 13:41:35;;;;;;;;;56.00;42.25;;;;;16.66;26.54;101656.19;4938329;28;46209;-51
2023/03/02 13:44:21;;;;;;;;;49.00;40.00;;;;;16.52;26.35;101655.25;4955789;28;45286;-52
2023/03/02 13:46:47;;;;;;;;;55.50;45.25;;;;;16.33;27.01;101655.50;4962270;28;46577;-50
2023/03/02 13:49:13;;;;;;;;;58.25;44.50;;;;;16.11;27.31;101638.97;4974675;28;45688;-52
2023/03/02 13:51:44;;;;;;;;;51.75;43.00;;;;;15.92;27.54;101652.63;4967223;28;45291;-51
2023/03/02 13:54:21;;;;;;;;;53.75;42.50;;;;;15.72;27.34;101651.94;4948783;28;45404;-53
2023/03/02 13:56:47;;;;;;;;;48.50;38.25;;;;;15.55;27.82;101642.19;4958755;28;45341;-50
2023/03/02 13:59:15;;;;;;;;;51.00;40.00;;;;;15.45;28.12;101657.97;4957033;28;46308;-50
2023/03/02 14:01:40;;;;;;;;;51.50;42.75;;;;;15.35;28.60;101656.75;4958462;28;45556;-52
2023/03/02 14:04:11;;;;;;;;;52.50;43.50;;;;;15.21;28.24;101654.84;4971079;28;45843;-54
2023/03/02 14:06:36;;;;;;;;;54.50;42.00;;;;;15.05;28.98;101649.47;4944338;28;45731;-51
2023/03/02 14:09:03;;;;;;;;;58.25;44.00;;;;;14.82;29.09;101656.09;4953563;28;46479;-52
2023/03/02 14:11:35;;;;;;;;;53.75;43.00;;;;;14.63;29.26;101654.38;4947686;28;71870;-51
2023/03/02 14:14:02;;;;;;;;;57.50;45.50;;;;;14.47;29.58;101658.81;4954703;28;45404;-49
2023/03/02 14:16:28;;;;;;;;;54.25;43.00;;;;;14.42;29.83;101655.50;4957372;28;45542;-49
2023/03/02 14:18:55;;;;;;;;;53.25;41.50;;;;;14.35;29.96;101658.53;4954541;28;45943;-49
2023/03/02 14:21:23;;;;;;;;;53.50;43.50;;;;;14.25;29.87;101651.03;4958881;28;45610;-49
2023/03/02 14:23:49;;;;;;;;;55.00;44.25;;;;;14.19;30.86;101657.59;4959432;28;45401;-54
2023/03/02 14:26:37;;;;;;;;;51.00;43.25;;;;;14.12;30.73;101653.47;4956470;28;45413;-50
2023/03/02 14:29:09;;;;;;;;;58.00;45.25;;;;;14.13;30.82;101649.88;4951386;28;46211;-52
2023/03/02 14:31:34;;;;;;;;;53.00;44.25;;;;;14.13;30.70;101650.75;4947884;28;45415;-51
2023/03/02 14:34:00;;;;;;;;;53.25;44.00;;;;;14.13;31.08;101655.22;4955674;28;45468;-53
2023/03/02 14:36:28;;;;;;;;;53.25;43.25;;;;;14.16;30.51;101650.59;4958605;28;50251;-51
2023/03/02 14:38:55;;;;;;;;;62.75;48.25;;;;;14.12;30.93;101649.03;4967560;28;45740;-50
2023/03/02 14:41:22;;;;;;;;;54.00;43.75;;;;;14.03;31.18;101658.38;4959292;28;45728;-49
2023/03/02 14:43:48;;;;;;;;;56.25;45.25;;;;;13.89;31.46;101651.03;4961716;28;45373;-53
2023/03/02 14:46:13;;;;;;;;;51.25;42.50;;;;;13.82;31.46;101640.72;4964897;28;45475;-50
2023/03/02 14:48:39;;;;;;;;;53.25;44.25;;;;;13.72;31.91;101649.22;4967863;28;57322;-53
2023/03/02 14:51:23;;;;;;;;;56.50;44.00;;;;;13.60;31.83;101641.81;4961340;28;45812;-51
2023/03/02 14:53:50;;;;;;;;;50.50;42.25;;;;;13.45;32.82;101648.75;4956046;28;45585;-52
2023/03/02 14:56:18;;;;;;;;;53.25;43.50;;;;;13.32;32.72;101648.44;4948004;28;45433;-52
2023/03/02 14:58:43;;;;;;;;;52.50;42.50;;;;;13.26;32.85;101654.13;4964840;28;46485;-49
2023/03/02 15:01:10;;;;;;;;;54.00;44.25;;;;;13.16;32.75;101655.50;4961220;28;71792;-49
2023/03/02 15:03:36;;;;;;;;;53.75;44.25;;;;;13.05;33.67;101654.19;4950213;28;45338;-48
2023/03/02 15:06:01;;;;;;;;;52.25;42.00;;;;;12.99;33.62;101650.94;4942010;28;55116;-50
2023/03/02 15:08:26;;;;;;;;;55.50;45.25;;;;;12.91;33.45;101652.16;4958237;28;45384;-51
2023/03/02 15:10:52;;;;;;;;;52.00;44.00;;;;;12.87;33.46;101647.91;4958515;28;45303;-51
2023/03/02 15:13:17;;;;;;;;;55.00;43.75;;;;;12.88;33.34;101654.09;4958604;28;69308;-50
2023/03/02 15:15:43;;;;;;;;;56.25;44.50;;;;;12.82;33.64;101647.25;4958609;28;57371;-53
2023/03/02 15:18:11;;;;;;;;;58.50;47.00;;;;;12.78;33.67;101647.47;4950431;28;45707;-49
2023/03/02 15:20:36;;;;;;;;;56.25;44.50;;;;;12.75;34.01;101648.47;4958126;28;45364;-51
2023/03/02 15:23:02;;;;;;;;;52.75;43.00;;;;;12.77;33.69;101648.41;4957632;28;45440;-52
2023/03/02 15:25:27;;;;;;;;;52.25;43.00;;;;;12.79;34.23;101641.16;4955309;28;45309;-51
2023/03/02 15:27:56;;;;;;;;;53.25;42.00;;;;;12.71;34.09;101633.50;4970954;28;46260;-52
2023/03/02 15:30:23;;;;;;;;;53.00;43.50;;;;;12.66;34.09;101640.84;4964050;28;45480;-52
2023/03/02 15:32:50;;;;;;;;;53.75;41.25;;;;;12.56;35.03;101640.41;4963427;28;45399;-49
2023/03/02 15:35:15;;;;;;;;;47.50;38.75;;;;;12.52;34.51;101645.03;4957714;28;45343;-49
2023/03/02 15:37:41;;;;;;;;;52.00;43.75;;;;;12.47;35.07;101640.84;4961308;28;46086;-52
2023/03/02 15:40:07;;;;;;;;;53.25;45.25;;;;;12.46;34.46;101639.97;4963349;28;45650;-52
2023/03/02 15:42:32;;;;;;;;;54.25;43.50;;;;;12.45;35.05;101640.91;4971235;28;45288;-52
2023/03/02 15:44:58;;;;;;;;;53.00;44.50;;;;;12.42;35.04;101638.38;4960052;28;67320;-51
2023/03/02 15:47:23;;;;;;;;;54.75;44.25;;;;;12.37;35.53;101638.59;4967318;28;53865;-52
2023/03/02 15:49:48;;;;;;;;;49.25;40.25;;;;;12.32;35.77;101637.03;4961622;28;47952;-52
2023/03/02 15:52:14;;;;;;;;;54.50;44.50;;;;;12.25;35.25;101631.09;4961468;28;57882;-52
2023/03/02 15:54:39;;;;;;;;;53.75;42.50;;;;;12.20;35.78;101635.78;4961441;28;61200;-51
2023/03/02 15:57:04;;;;;;;;;49.50;41.00;;;;;12.17;36.01;101636.78;4961596;28;46123;-52
2023/03/02 15:59:30;;;;;;;;;49.75;41.50;;;;;12.15;35.52;101638.66;4978702;28;65544;-51
2023/03/02 16:02:00;;;;;;;;;53.50;43.25;;;;;12.11;35.95;101645.06;4979936;28;45364;-50
2023/03/02 16:04:27;;;;;;;;;51.00;42.50;;;;;12.04;36.13;101649.75;4981349;28;45209;-52
2023/03/02 16:06:53;;;;;;;;;54.50;43.00;;;;;11.99;36.17;101643.75;4965400;28;46459;-49
2023/03/02 16:09:19;;;;;;;;;55.00;42.50;;;;;11.96;35.92;101654.56;4969233;28;45445;-52
2023/03/02 16:11:45;;;;;;;;;53.50;43.25;;;;;11.92;36.14;101652.94;4978608;28;45461;-51
2023/03/02 16:14:12;;;;;;;;;50.75;41.50;;;;;11.89;36.41;101659.25;4971418;28;70575;-51
2023/03/02 16:16:38;;;;;;;;;52.00;42.50;;;;;11.84;36.63;101663.91;4961518;28;46053;-51
2023/03/02 16:19:03;;;;;;;;;51.00;41.50;;;;;11.81;36.64;101660.50;4955780;28;45397;-52
2023/03/02 16:21:28;;;;;;;;;49.50;41.25;;;;;11.71;36.97;101658.22;4960735;28;66925;-51
2023/03/02 16:24:01;;;;;;;;;51.50;42.00;;;;;11.66;36.96;101667.34;4960908;28;45206;-50
2023/03/02 16:26:27;;;;;;;;;49.00;38.25;;;;;11.60;37.29;101660.44;4960743;28;46931;-52
2023/03/02 16:28:52;;;;;;;;;52.00;40.50;;;;;11.55;37.14;101671.31;4962192;28;64706;-51
2023/03/02 16:31:19;;;;;;;;;48.50;40.75;;;;;11.50;37.38;101667.06;4956336;28;61657;-50
2023/03/02 16:33:45;;;;;;;;;51.00;43.00;;;;;11.41;38.14;101671.00;4961247;28;45595;-52
2023/03/02 16:36:12;;;;;;;;;49.75;41.50;;;;;11.36;37.41;101673.84;4960360;28;47356;-50
2023/03/02 16:38:38;;;;;;;;;50.50;41.50;;;;;11.35;37.54;101685.41;4960923;28;45605;-51
2023/03/02 16:41:05;;;;;;;;;53.00;42.75;;;;;11.30;38.21;101683.88;4960579;28;45716;-52
2023/03/02 16:43:31;;;;;;;;;54.75;42.25;;;;;11.31;37.75;101677.63;4959546;28;45558;-50
2023/03/02 16:45:56;;;;;;;;;53.25;43.25;;;;;11.29;38.02;101683.00;4959451;28;75466;-51
2023/03/02 16:48:22;;;;;;;;;47.50;39.75;;;;;11.27;37.92;101690.19;4960059;28;64209;-51
2023/03/02 16:50:57;;;;;;;;;51.50;42.25;;;;;11.23;38.73;101692.09;4961059;28;45492;-51
2023/03/02 16:53:22;;;;;;;;;53.25;43.50;;;;;11.18;38.41;101690.53;4959841;28;45445;-50
2023/03/02 16:55:49;;;;;;;;;57.50;46.75;;;;;11.15;38.37;101696.00;4958823;28;46351;-51
2023/03/02 16:58:14;;;;;;;;;54.25;45.00;;;;;11.11;38.77;101697.91;4955239;28;45407;-51
2023/03/02 17:00:41;;;;;;;;;57.25;43.00;;;;;11.07;39.69;101697.13;4952089;28;45523;-50
2023/03/02 17:03:06;;;;;;;;;53.50;44.50;;;;;11.01;39.17;101700.03;4956418;28;45591;-48
2023/03/02 17:05:32;;;;;;;;;52.75;43.25;;;;;10.92;39.41;101701.25;4953566;28;73710;-53
2023/03/02 17:07:58;;;;;;;;;52.50;41.25;;;;;10.89;39.50;101708.47;4956307;28;45727;-51
2023/03/02 17:10:24;;;;;;;;;57.25;44.75;;;;;10.83;39.28;101704.22;4964169;28;45399;-49
2023/03/02 17:12:49;;;;;;;;;51.00;42.00;;;;;10.80;39.53;101711.47;4954191;28;45283;-53
2023/03/02 17:15:15;;;;;;;;;53.00;42.25;;;;;10.74;39.28;101707.22;4950894;28;73389;-51
2023/03/02 17:17:41;;;;;;;;;54.50;43.50;;;;;10.70;39.57;101719.81;4952870;28;45360;-52
2023/03/02 17:20:10;;;;;;;;;54.00;42.25;;;;;10.65;40.03;101713.78;4955288;28;49153;-50